createdAt,value
2019-04-25T00:00:29.455Z,99.90
2019-04-25T00:02:58.072Z,99.90
2019-04-25T00:05:26.731Z,99.90
2019-04-25T00:07:55.430Z,99.90
2019-04-25T00:10:24.107Z,99.90
2019-04-25T00:12:52.937Z,99.90
2019-04-25T00:15:22.393Z,99.90
2019-04-25T00:17:52.214Z,99.90
2019-04-25T00:20:21.413Z,99.90
2019-04-25T00:22:51.510Z,99.90
2019-04-25T00:25:21.884Z,99.90
2019-04-25T00:27:51.643Z,99.90
2019-04-25T00:30:20.998Z,99.90
2019-04-25T00:32:51.140Z,99.90
2019-04-25T00:35:19.850Z,99.90
2019-04-25T00:37:48.466Z,99.90
2019-04-25T00:40:17.081Z,99.90
2019-04-25T00:42:46.243Z,99.90
2019-04-25T00:45:15.041Z,99.90
2019-04-25T00:47:44.652Z,99.90
2019-04-25T00:50:13.614Z,99.90
2019-04-25T00:52:43.518Z,99.90
2019-04-25T00:55:13.235Z,99.90
2019-04-25T00:57:43.607Z,99.90
2019-04-25T01:00:15.301Z,99.90
2019-04-25T01:02:44.202Z,99.90
2019-04-25T01:05:13.030Z,99.90
2019-04-25T01:07:42.213Z,99.90
2019-04-25T01:10:11.884Z,99.90
2019-04-25T01:12:41.701Z,99.90
2019-04-25T01:15:11.616Z,99.90
2019-04-25T01:17:41.319Z,99.90
2019-04-25T01:20:10.469Z,99.90
2019-04-25T01:22:39.205Z,99.90
2019-04-25T01:25:09.323Z,99.90
2019-04-25T01:27:37.981Z,99.90
2019-04-25T01:30:10.544Z,99.90
2019-04-25T01:32:39.401Z,99.90
2019-04-25T01:35:08.593Z,99.90
2019-04-25T01:37:37.448Z,99.90
2019-04-25T01:40:07.658Z,99.90
2019-04-25T01:42:36.430Z,99.90
2019-04-25T01:45:07.001Z,99.90
2019-04-25T01:47:35.679Z,99.90
2019-04-25T01:50:06.448Z,99.90
2019-04-25T01:52:35.067Z,99.90
2019-04-25T01:55:05.973Z,99.90
2019-04-25T01:57:34.665Z,99.90
2019-04-25T02:00:05.836Z,99.90
2019-04-25T02:02:34.451Z,99.90
2019-04-25T02:05:04.758Z,99.90
2019-04-25T02:07:33.527Z,99.90
2019-04-25T02:10:03.760Z,99.90
2019-04-25T02:12:33.598Z,99.90
2019-04-25T02:15:05.963Z,99.90
2019-04-25T02:17:34.062Z,99.90
2019-04-25T02:20:05.043Z,99.90
2019-04-25T02:22:33.929Z,99.90
2019-04-25T02:25:06.638Z,99.90
2019-04-25T02:27:35.303Z,99.90
2019-04-25T02:30:06.876Z,99.90
2019-04-25T02:32:37.150Z,99.90
2019-04-25T02:35:09.511Z,99.90
2019-04-25T02:37:37.876Z,99.90
2019-04-25T02:40:08.691Z,99.90
2019-04-25T02:42:37.747Z,99.90
2019-04-25T02:45:09.167Z,99.90
2019-04-25T02:47:37.828Z,99.90
2019-04-25T02:50:08.978Z,99.90
2019-04-25T02:52:37.535Z,99.90
2019-04-25T02:55:10.748Z,99.90
2019-04-25T02:57:37.544Z,99.90
2019-04-25T03:00:19.705Z,99.90
2019-04-25T03:02:48.398Z,99.90
2019-04-25T03:05:17.329Z,99.90
2019-04-25T03:07:45.993Z,99.90
2019-04-25T03:10:15.060Z,99.90
2019-04-25T03:12:44.655Z,99.90
2019-04-25T03:15:14.478Z,99.90
2019-04-25T03:17:44.352Z,99.90
2019-04-25T03:20:14.851Z,99.90
2019-04-25T03:22:44.436Z,99.90
2019-04-25T03:25:17.078Z,99.90
2019-04-25T03:27:44.122Z,99.90
2019-04-25T03:30:17.648Z,99.90
2019-04-25T03:32:45.036Z,99.90
2019-04-25T03:35:14.567Z,99.90
2019-04-25T03:37:43.697Z,99.90
2019-04-25T03:40:13.977Z,99.90
2019-04-25T03:42:43.899Z,99.90
2019-04-25T03:45:13.996Z,99.90
2019-04-25T03:47:43.298Z,99.90
2019-04-25T03:50:13.844Z,99.90
2019-04-25T03:52:43.603Z,99.90
2019-04-25T03:55:12.468Z,99.90
2019-04-25T03:57:41.362Z,99.90
2019-04-25T04:00:10.795Z,99.90
2019-04-25T04:02:39.449Z,99.90
2019-04-25T04:05:08.646Z,99.90
2019-04-25T04:07:38.130Z,99.90
2019-04-25T04:10:07.972Z,99.90
2019-04-25T04:12:36.688Z,99.90
2019-04-25T04:15:07.044Z,99.90
2019-04-25T04:17:35.749Z,99.90
2019-04-25T04:20:06.848Z,99.90
2019-04-25T04:22:35.548Z,99.90
2019-04-25T04:25:05.895Z,99.90
2019-04-25T04:27:35.195Z,99.90
2019-04-25T04:30:06.491Z,99.90
2019-04-25T04:32:35.168Z,99.90
2019-04-25T04:35:05.189Z,99.90
2019-04-25T04:37:33.850Z,99.90
2019-04-25T04:40:03.620Z,99.90
2019-04-25T04:42:33.695Z,99.90
2019-04-25T04:45:03.576Z,99.90
2019-04-25T04:47:33.243Z,99.90
2019-04-25T04:50:03.891Z,99.90
2019-04-25T04:52:34.101Z,99.90
2019-04-25T04:55:07.968Z,99.90
2019-04-25T04:57:36.130Z,99.90
2019-04-25T05:00:07.243Z,99.90
2019-04-25T05:02:35.942Z,99.90
2019-04-25T05:05:05.412Z,99.90
2019-04-25T05:07:34.103Z,99.90
2019-04-25T05:10:03.332Z,99.90
2019-04-25T05:12:32.095Z,99.90
2019-04-25T05:15:01.470Z,99.90
2019-04-25T05:17:30.251Z,99.90
2019-04-25T05:19:58.865Z,99.90
2019-04-25T05:22:27.550Z,99.90
2019-04-25T05:24:56.164Z,99.90
2019-04-25T05:27:37.106Z,99.90
2019-04-25T05:29:55.156Z,99.90
2019-04-25T05:32:25.145Z,99.90
2019-04-25T05:34:53.957Z,99.90
2019-04-25T05:37:25.237Z,99.90
2019-04-25T05:39:53.585Z,99.90
2019-04-25T05:42:23.019Z,99.90
2019-04-25T05:44:54.072Z,99.90
2019-04-25T05:47:25.663Z,99.90
2019-04-25T05:49:54.162Z,99.90
2019-04-25T05:52:24.272Z,99.90
2019-04-25T05:54:54.067Z,99.90
2019-04-25T05:57:23.927Z,99.90
2019-04-25T05:59:53.709Z,99.90
2019-04-25T06:02:24.477Z,99.90
2019-04-25T06:04:53.527Z,99.90
2019-04-25T06:07:22.349Z,99.90
2019-04-25T06:09:51.009Z,99.90
2019-04-25T06:12:19.860Z,99.90
2019-04-25T06:14:48.661Z,99.90
2019-04-25T06:17:17.264Z,99.90
2019-04-25T06:19:45.997Z,99.90
2019-04-25T06:22:15.189Z,99.90
2019-04-25T06:24:44.431Z,99.90
2019-04-25T06:27:13.924Z,99.90
2019-04-25T06:29:43.204Z,99.90
2019-04-25T06:32:13.903Z,99.90
2019-04-25T06:34:44.210Z,99.90
2019-04-25T06:37:13.896Z,99.90
2019-04-25T06:39:44.200Z,99.90
2019-04-25T06:42:13.830Z,99.90
2019-04-25T06:44:43.609Z,99.90
2019-04-25T06:47:13.050Z,99.90
2019-04-25T06:49:43.214Z,99.90
2019-04-25T06:52:12.141Z,99.90
2019-04-25T06:54:40.752Z,99.90
2019-04-25T06:57:09.539Z,99.90
2019-04-25T06:59:41.278Z,99.90
2019-04-25T07:02:08.721Z,99.90
2019-04-25T07:04:37.505Z,99.90
2019-04-25T07:07:12.445Z,99.90
2019-04-25T07:09:36.631Z,99.90
2019-04-25T07:12:05.584Z,99.90
2019-04-25T07:14:36.880Z,99.90
2019-04-25T07:17:04.696Z,99.90
2019-04-25T07:19:34.289Z,99.90
2019-04-25T07:22:03.998Z,99.90
2019-04-25T07:24:35.049Z,99.90
2019-04-25T07:27:03.804Z,99.90
2019-04-25T07:29:33.720Z,99.90
2019-04-25T07:32:03.866Z,99.90
2019-04-25T07:34:34.113Z,99.60
2019-04-25T07:37:03.780Z,99.80
2019-04-25T07:39:34.126Z,98.30
2019-04-25T07:42:04.168Z,98.40
2019-04-25T07:44:41.926Z,97.40
2019-04-25T07:47:04.079Z,97.30
2019-04-25T07:49:33.603Z,98.40
2019-04-25T07:52:03.615Z,97.00
2019-04-25T07:54:34.027Z,95.80
2019-04-25T07:57:03.685Z,95.80
2019-04-25T07:59:34.969Z,95.70
2019-04-25T08:02:03.389Z,96.80
2019-04-25T08:04:32.145Z,96.20
2019-04-25T08:07:00.882Z,96.60
2019-04-25T08:09:29.604Z,95.90
2019-04-25T08:11:58.189Z,95.10
2019-04-25T08:14:28.450Z,95.70
2019-04-25T08:16:57.687Z,95.30
2019-04-25T08:19:26.558Z,95.00
2019-04-25T08:21:56.257Z,96.10
2019-04-25T08:24:26.211Z,96.00
2019-04-25T08:26:54.874Z,95.40
2019-04-25T08:29:25.392Z,95.10
2019-04-25T08:31:54.288Z,95.00
2019-04-25T08:34:24.322Z,95.20
2019-04-25T08:36:54.303Z,94.80
2019-04-25T08:39:24.080Z,94.20
2019-04-25T08:41:53.976Z,94.30
2019-04-25T08:44:24.181Z,93.80
2019-04-25T08:46:53.541Z,92.60
2019-04-25T08:49:23.890Z,91.80
2019-04-25T08:51:54.256Z,91.50
2019-04-25T08:54:23.620Z,92.00
2019-04-25T08:56:53.178Z,90.70
2019-04-25T08:59:32.737Z,87.50
2019-04-25T09:01:53.567Z,87.60
2019-04-25T09:04:23.935Z,88.40
2019-04-25T09:06:53.618Z,86.00
2019-04-25T09:09:23.593Z,87.00
2019-04-25T09:11:54.283Z,88.30
2019-04-25T09:14:24.456Z,87.00
2019-04-25T09:16:53.482Z,88.00
2019-04-25T09:19:22.197Z,90.10
2019-04-25T09:21:50.861Z,89.60
2019-04-25T09:24:19.475Z,87.70
2019-04-25T09:26:48.136Z,84.90
2019-04-25T09:29:19.760Z,85.70
2019-04-25T09:31:47.218Z,85.30
2019-04-25T09:34:15.948Z,85.50
2019-04-25T09:36:45.027Z,85.80
2019-04-25T09:39:14.722Z,84.30
2019-04-25T09:41:44.157Z,83.50
2019-04-25T09:44:14.420Z,82.50
2019-04-25T09:46:44.126Z,80.80
2019-04-25T09:49:14.135Z,77.40
2019-04-25T09:51:44.609Z,74.40
2019-04-25T09:54:15.170Z,73.60
2019-04-25T09:56:45.134Z,73.10
2019-04-25T09:59:26.502Z,71.10
2019-04-25T10:01:44.884Z,69.00
2019-04-25T10:04:13.641Z,69.60
2019-04-25T10:06:44.365Z,68.60
2019-04-25T10:09:13.568Z,61.70
2019-04-25T10:11:43.976Z,53.90
2019-04-25T10:14:24.552Z,55.60
2019-04-25T10:16:53.906Z,57.40
2019-04-25T10:19:23.540Z,55.80
2019-04-25T10:21:55.035Z,56.10
2019-04-25T10:24:22.911Z,58.80
2019-04-25T10:26:54.383Z,57.70
2019-04-25T10:29:22.378Z,59.70
2019-04-25T10:31:51.290Z,57.50
2019-04-25T10:34:20.043Z,57.30
2019-04-25T10:36:48.975Z,56.90
2019-04-25T10:39:17.811Z,55.40
2019-04-25T10:41:47.067Z,56.10
2019-04-25T10:44:16.824Z,55.10
2019-04-25T10:46:47.137Z,55.40
2019-04-25T10:49:16.059Z,53.10
2019-04-25T10:51:45.794Z,55.30
2019-04-25T10:54:14.760Z,55.90
2019-04-25T10:56:45.728Z,54.90
2019-04-25T10:59:14.602Z,52.10
2019-04-25T11:01:45.049Z,52.40
2019-04-25T11:04:13.893Z,52.90
2019-04-25T11:06:45.384Z,53.00
2019-04-25T11:09:17.567Z,49.30
2019-04-25T11:11:45.846Z,49.30
2019-04-25T11:14:14.531Z,48.70
2019-04-25T11:16:45.584Z,45.70
2019-04-25T11:19:15.254Z,47.30
2019-04-25T11:21:45.645Z,46.60
2019-04-25T11:24:14.721Z,48.00
2019-04-25T11:26:47.185Z,45.60
2019-04-25T11:29:15.068Z,46.00
2019-04-25T11:31:45.747Z,45.60
2019-04-25T11:34:15.084Z,45.40
2019-04-25T11:36:44.018Z,46.90
2019-04-25T11:39:13.916Z,44.50
2019-04-25T11:41:43.276Z,43.40
2019-04-25T11:44:13.847Z,46.80
2019-04-25T11:46:44.424Z,45.70
2019-04-25T11:49:15.193Z,43.30
2019-04-25T11:51:45.089Z,44.60
2019-04-25T11:54:14.505Z,41.30
2019-04-25T11:56:45.939Z,41.20
2019-04-25T11:59:15.647Z,41.80
2019-04-25T12:01:46.103Z,42.00
2019-04-25T12:04:15.292Z,41.30
2019-04-25T12:06:46.905Z,40.50
2019-04-25T12:09:14.916Z,41.20
2019-04-25T12:11:45.822Z,41.50
2019-04-25T12:14:14.900Z,40.10
2019-04-25T12:16:46.437Z,38.20
2019-04-25T12:19:14.205Z,37.90
2019-04-25T12:21:43.755Z,38.00
2019-04-25T12:24:13.754Z,38.30
2019-04-25T12:26:45.297Z,38.90
2019-04-25T12:29:14.365Z,37.40
2019-04-25T12:31:45.309Z,35.60
2019-04-25T12:34:14.143Z,36.00
2019-04-25T12:36:44.375Z,35.10
2019-04-25T12:39:13.970Z,36.90
2019-04-25T12:41:44.203Z,35.50
2019-04-25T12:44:13.310Z,35.50
2019-04-25T12:46:43.559Z,35.00
2019-04-25T12:49:13.125Z,35.10
2019-04-25T12:51:42.743Z,33.70
2019-04-25T12:54:11.427Z,34.70
2019-04-25T12:56:40.190Z,33.80
2019-04-25T12:59:08.849Z,34.70
2019-04-25T13:01:37.460Z,35.00
2019-04-25T13:04:06.116Z,35.20
2019-04-25T13:06:34.721Z,35.50
2019-04-25T13:09:05.495Z,31.90
2019-04-25T13:11:34.848Z,29.30
2019-04-25T13:14:03.673Z,27.70
2019-04-25T13:16:32.278Z,27.30
2019-04-25T13:19:12.664Z,26.20
2019-04-25T13:21:31.283Z,25.40
2019-04-25T13:24:00.730Z,24.40
2019-04-25T13:26:29.530Z,22.80
2019-04-25T13:28:59.022Z,23.30
2019-04-25T13:31:27.820Z,22.90
2019-04-25T13:33:57.336Z,22.10
2019-04-25T13:36:26.170Z,22.30
2019-04-25T13:38:55.010Z,21.20
2019-04-25T13:41:23.709Z,20.80
2019-04-25T13:43:53.068Z,20.00
2019-04-25T13:46:25.826Z,20.40
2019-04-25T13:48:54.397Z,19.30
2019-04-25T13:51:24.636Z,19.60
2019-04-25T13:53:54.535Z,19.40
2019-04-25T13:56:25.880Z,18.90
2019-04-25T13:58:54.279Z,18.30
2019-04-25T14:01:24.698Z,18.20
2019-04-25T14:03:54.272Z,19.10
2019-04-25T14:06:23.950Z,18.20
2019-04-25T14:08:53.444Z,18.30
2019-04-25T14:11:24.007Z,18.30
2019-04-25T14:13:52.807Z,18.20
2019-04-25T14:16:22.579Z,18.10
2019-04-25T14:18:51.869Z,18.00
2019-04-25T14:21:20.830Z,19.10
2019-04-25T14:23:50.459Z,18.50
2019-04-25T14:26:19.111Z,18.70
2019-04-25T14:28:47.883Z,18.30
2019-04-25T14:31:30.410Z,18.10
2019-04-25T14:33:46.959Z,18.50
2019-04-25T14:36:15.692Z,18.70
2019-04-25T14:38:44.300Z,18.20
2019-04-25T14:41:13.028Z,18.80
2019-04-25T14:43:41.633Z,19.00
2019-04-25T14:46:10.297Z,18.80
2019-04-25T14:48:38.956Z,19.30
2019-04-25T14:51:07.651Z,18.80
2019-04-25T14:53:36.321Z,18.70
2019-04-25T14:56:05.082Z,18.00
2019-04-25T14:58:33.711Z,19.20
2019-04-25T15:01:02.441Z,18.50
2019-04-25T15:03:31.801Z,18.50
2019-04-25T15:06:00.658Z,19.00
2019-04-25T15:08:29.316Z,18.40
2019-04-25T15:10:57.971Z,18.70
2019-04-25T15:13:26.641Z,19.10
2019-04-25T15:15:55.249Z,18.80
2019-04-25T15:18:24.732Z,18.60
2019-04-25T15:20:53.480Z,19.10
2019-04-25T15:23:23.184Z,18.30
2019-04-25T15:25:52.591Z,18.70
2019-04-25T15:28:21.247Z,19.10
2019-04-25T15:30:49.906Z,20.00
2019-04-25T15:33:18.559Z,19.70
2019-04-25T15:35:47.171Z,20.00
2019-04-25T15:38:16.004Z,19.90
2019-04-25T15:40:44.665Z,19.60
2019-04-25T15:43:13.276Z,19.20
2019-04-25T15:45:43.013Z,19.60
2019-04-25T15:48:11.884Z,19.00
2019-04-25T15:50:40.580Z,19.20
2019-04-25T15:53:09.184Z,19.30
2019-04-25T15:55:38.668Z,19.10
2019-04-25T15:58:07.383Z,19.70
2019-04-25T16:00:36.038Z,18.80
2019-04-25T16:03:05.407Z,19.00
2019-04-25T16:05:35.573Z,18.80
2019-04-25T16:08:04.559Z,18.70
2019-04-25T16:10:33.986Z,19.60
2019-04-25T16:13:02.956Z,19.10
2019-04-25T16:15:31.695Z,19.30
2019-04-25T16:18:00.291Z,19.10
2019-04-25T16:20:29.588Z,19.70
2019-04-25T16:22:58.332Z,19.40
2019-04-25T16:25:27.164Z,19.80
2019-04-25T16:27:55.775Z,20.30
2019-04-25T16:30:24.512Z,20.50
2019-04-25T16:32:53.166Z,20.60
2019-04-25T16:35:21.831Z,20.90
2019-04-25T16:37:50.438Z,20.80
2019-04-25T16:40:19.050Z,22.40
2019-04-25T16:42:47.884Z,23.00
2019-04-25T16:45:16.540Z,24.50
2019-04-25T16:47:45.201Z,24.40
2019-04-25T16:50:13.949Z,24.10
2019-04-25T16:52:42.675Z,28.80
2019-04-25T16:55:11.827Z,27.60
2019-04-25T16:57:40.482Z,28.50
2019-04-25T17:00:10.300Z,29.00
2019-04-25T17:02:40.853Z,27.30
2019-04-25T17:05:09.565Z,29.80
2019-04-25T17:07:38.461Z,30.10
2019-04-25T17:10:08.088Z,30.70
2019-04-25T17:12:36.744Z,31.20
2019-04-25T17:15:08.565Z,30.10
2019-04-25T17:17:37.857Z,31.90
2019-04-25T17:20:08.152Z,31.50
2019-04-25T17:22:37.156Z,30.70
2019-04-25T17:25:06.489Z,30.90
2019-04-25T17:27:35.645Z,31.10
2019-04-25T17:30:06.205Z,32.20
2019-04-25T17:32:48.470Z,32.30
2019-04-25T17:35:05.960Z,32.50
2019-04-25T17:37:34.821Z,33.30
2019-04-25T17:40:04.094Z,32.40
2019-04-25T17:42:33.721Z,32.60
2019-04-25T17:45:05.305Z,34.10
2019-04-25T17:47:34.580Z,33.90
2019-04-25T17:50:05.465Z,33.20
2019-04-25T17:52:34.125Z,33.60
2019-04-25T17:55:02.782Z,34.90
2019-04-25T17:57:32.975Z,34.00
2019-04-25T18:00:01.836Z,33.60
2019-04-25T18:02:30.447Z,35.50
2019-04-25T18:04:59.109Z,35.70
2019-04-25T18:07:27.717Z,34.40
2019-04-25T18:09:56.370Z,36.00
2019-04-25T18:12:24.983Z,36.30
2019-04-25T18:14:53.641Z,37.10
2019-04-25T18:17:22.251Z,36.40
2019-04-25T18:19:50.980Z,36.30
2019-04-25T18:22:19.639Z,36.40
2019-04-25T18:24:48.252Z,37.20
2019-04-25T18:27:17.001Z,36.60
2019-04-25T18:29:46.376Z,36.70
2019-04-25T18:32:15.072Z,37.90
2019-04-25T18:34:44.439Z,38.00
2019-04-25T18:37:13.219Z,39.50
2019-04-25T18:39:42.012Z,39.40
2019-04-25T18:42:10.767Z,39.00
2019-04-25T18:44:39.980Z,38.80
2019-04-25T18:47:08.821Z,39.50
2019-04-25T18:49:38.518Z,39.50
2019-04-25T18:52:07.271Z,39.60
2019-04-25T18:54:37.337Z,40.40
2019-04-25T18:57:06.288Z,39.80
2019-04-25T18:59:34.897Z,40.50
2019-04-25T19:02:03.553Z,40.90
2019-04-25T19:04:33.331Z,41.60
2019-04-25T19:07:02.861Z,41.80
2019-04-25T19:09:32.414Z,41.80
2019-04-25T19:12:01.954Z,41.60
2019-04-25T19:14:31.776Z,42.00
2019-04-25T19:17:00.693Z,42.40
2019-04-25T19:19:29.309Z,42.40
2019-04-25T19:22:00.598Z,42.40
2019-04-25T19:24:29.406Z,43.90
2019-04-25T19:26:58.063Z,44.90
2019-04-25T19:29:26.731Z,45.40
2019-04-25T19:31:55.386Z,45.10
2019-04-25T19:34:24.062Z,43.50
2019-04-25T19:36:52.678Z,45.00
2019-04-25T19:39:21.332Z,44.60
2019-04-25T19:41:49.981Z,45.70
2019-04-25T19:44:18.709Z,45.10
2019-04-25T19:46:47.591Z,44.60
2019-04-25T19:49:16.264Z,45.50
2019-04-25T19:51:47.171Z,46.10
2019-04-25T19:54:15.914Z,46.90
2019-04-25T19:56:45.347Z,47.40
2019-04-25T19:59:14.071Z,48.30
2019-04-25T20:01:43.956Z,48.80
2019-04-25T20:04:12.681Z,49.80
2019-04-25T20:06:42.261Z,50.70
2019-04-25T20:09:12.046Z,51.00
2019-04-25T20:11:40.658Z,51.40
2019-04-25T20:14:09.563Z,51.80
2019-04-25T20:16:38.642Z,51.10
2019-04-25T20:19:09.484Z,52.30
2019-04-25T20:21:39.423Z,53.70
2019-04-25T20:24:08.220Z,53.50
2019-04-25T20:26:36.878Z,53.90
2019-04-25T20:29:05.560Z,54.60
2019-04-25T20:31:34.231Z,55.60
2019-04-25T20:34:06.205Z,54.50
2019-04-25T20:36:33.766Z,54.60
2019-04-25T20:39:02.634Z,54.80
2019-04-25T20:41:31.632Z,53.50
2019-04-25T20:44:00.527Z,53.70
2019-04-25T20:46:29.135Z,53.30
2019-04-25T20:48:58.125Z,55.00
2019-04-25T20:51:27.433Z,55.80
2019-04-25T20:53:57.103Z,56.10
2019-04-25T20:56:25.810Z,57.20
2019-04-25T20:58:55.583Z,57.60
2019-04-25T21:01:24.410Z,58.40
2019-04-25T21:03:53.914Z,58.60
2019-04-25T21:06:22.851Z,59.10
2019-04-25T21:08:51.460Z,59.50
2019-04-25T21:11:20.351Z,60.80
2019-04-25T21:13:49.100Z,61.40
2019-04-25T21:16:17.759Z,60.80
2019-04-25T21:18:46.448Z,62.00
2019-04-25T21:21:15.099Z,61.60
2019-04-25T21:23:44.775Z,60.10
2019-04-25T21:26:13.739Z,61.30
2019-04-25T21:28:42.347Z,63.40
2019-04-25T21:31:12.668Z,64.20
2019-04-25T21:33:41.497Z,63.30
2019-04-25T21:36:10.218Z,64.30
2019-04-25T21:38:40.888Z,64.30
2019-04-25T21:41:09.677Z,63.50
2019-04-25T21:43:38.567Z,63.50
2019-04-25T21:46:07.399Z,65.30
2019-04-25T21:48:36.191Z,66.30
2019-04-25T21:51:05.127Z,65.80
2019-04-25T21:53:35.834Z,67.00
2019-04-25T21:56:04.743Z,67.70
2019-04-25T21:58:33.349Z,68.20
2019-04-25T22:01:02.799Z,67.50
2019-04-25T22:03:31.409Z,68.70
2019-04-25T22:06:00.739Z,68.70
2019-04-25T22:08:29.532Z,68.10
2019-04-25T22:10:59.175Z,68.60
2019-04-25T22:13:27.845Z,71.40
2019-04-25T22:15:57.235Z,70.50
2019-04-25T22:18:26.728Z,71.50
2019-04-25T22:20:55.799Z,72.00
2019-04-25T22:23:25.708Z,72.60
2019-04-25T22:25:54.637Z,72.90
2019-04-25T22:28:23.627Z,73.40
2019-04-25T22:30:54.175Z,74.10
2019-04-25T22:33:22.804Z,74.20
2019-04-25T22:35:51.465Z,74.10
2019-04-25T22:38:20.426Z,75.10
2019-04-25T22:40:49.156Z,73.70
2019-04-25T22:43:18.118Z,74.20
2019-04-25T22:45:47.095Z,72.70
2019-04-25T22:48:15.754Z,72.90
2019-04-25T22:50:45.368Z,73.30
2019-04-25T22:53:22.587Z,74.90
2019-04-25T22:55:44.862Z,73.90
2019-04-25T22:58:13.525Z,74.30
2019-04-25T23:00:42.142Z,74.80
2019-04-25T23:03:11.436Z,74.30
2019-04-25T23:05:40.212Z,74.60
2019-04-25T23:08:09.838Z,75.80
2019-04-25T23:10:38.742Z,75.90
2019-04-25T23:13:07.397Z,77.30
2019-04-25T23:15:36.010Z,76.50
2019-04-25T23:18:05.380Z,76.30
2019-04-25T23:20:34.190Z,78.40
2019-04-25T23:23:04.226Z,78.00
2019-04-25T23:25:33.550Z,78.40
2019-04-25T23:28:02.162Z,78.70
2019-04-25T23:30:31.212Z,77.70
2019-04-25T23:32:59.823Z,78.20
2019-04-25T23:35:31.707Z,77.50
2019-04-25T23:37:58.825Z,80.00
2019-04-25T23:40:27.437Z,81.00
2019-04-25T23:42:56.377Z,81.20
2019-04-25T23:45:25.037Z,80.10
2019-04-25T23:47:53.648Z,79.10
2019-04-25T23:50:22.694Z,80.40
2019-04-25T23:52:51.513Z,80.30
2019-04-25T23:55:20.525Z,80.50
2019-04-25T23:57:49.133Z,81.90
